Pagrindinis puslapis
METAR-TAF:

METAR-TAF

Oro uostai :

Kelouna, Britų Kolumbija, Kanada

platuma: 49-58N, ilguma: 119-23W, Aukštis: 430 m

Dabartinis oras

Ataskaita buvo paskelbta 40 minutes, ne 05:00 UTC
Vėjas 2 kt nuo kintamojo kryptimis
Temperatūra 5°C
Drėgmė 70%
Slėgis 1024 hPa
Matomumas: 14.5 km
Mažai debesys ne aukštis 7000 ft
Su prošvaistėmis ne aukštis 8300 ft
Apsiniaukę ne aukštis 13000 ft

METAR: CYLW 280500Z AUTO VRB02KT 9SM FEW070 BKN083 OVC130 05/00 A3025 RMK SLP259

Laikas: 21:40 (05:40 UTC)

Prognozė

Ataskaita buvo paskelbta 5 valandos ir 2 minutes, ne 00:38 UTC
Prognozė galioja nuo 28 metu 01 UTC su 28 metu 13 UTC
Vėjas 7 kt iš Pietų/Pietryčių
Matomumas: 10 km
Išsisklaidę debesys ne aukštis 5000 ft
Su prošvaistėmis ne aukštis 10000 ft

TAF: CYLW 280038Z 2801/2813 16007KT P6SM SCT050 BKN100 RMK FCST BASED ON AUTO OBS. NXT FCST BY 280700Z

Orai ataskaitas ir orų prognozės (METAR, TAF).

turimą stotys yra geltonos ir raudonos taškus žemėlapyje.

Perkelti pele per norėdami pamatyti stoties vardą.

Tada spustelėkite, norėdami matyti oro stebėjimo ir prognozės.

Norėdami pakeisti žemėlapį: spustelėkite ant žalios mygtukų su juodo kryžiaus žemyn,; žalią mygtuką su brūkšneliu, jei norite nutolinti; arba žalių rodyklių gretimoms žemėlapius.


METAR-TAF: